Time;durP1;ratioP1;P1;durP2;ratioP2;P2;SDS_P1;SDS_P2;PMS_P1;PMS_P2;Temp;Humidity;BMP_temperature;BMP_pressure;BME280_temperature;BME280_humidity;BME280_pressure;Samples;Min_cycle;Max_cycle;Signal;HPM_P1;HPM_P2
2022/02/19 00:02:10;;;;;;;8.43;1.88;;;7.50;97.90;;;;;;5004327;28;20026;-71
2022/02/19 00:04:36;;;;;;;7.25;1.88;;;7.50;97.80;;;;;;5004877;28;20421;-71
2022/02/19 00:07:03;;;;;;;6.72;1.77;;;7.50;97.70;;;;;;5005925;28;20077;-71
2022/02/19 00:09:29;;;;;;;9.35;2.03;;;7.50;97.80;;;;;;5004447;28;20108;-71
2022/02/19 00:11:55;;;;;;;11.88;1.77;;;7.40;97.80;;;;;;5006315;28;20113;-70
2022/02/19 00:14:20;;;;;;;6.97;1.35;;;7.40;97.80;;;;;;5005908;28;20446;-71
2022/02/19 00:16:46;;;;;;;4.68;1.20;;;7.40;97.90;;;;;;5005908;28;20105;-71
2022/02/19 00:19:12;;;;;;;11.77;1.80;;;7.40;97.90;;;;;;5001545;28;20363;-70
2022/02/19 00:21:37;;;;;;;8.75;1.65;;;7.40;97.90;;;;;;5005610;28;20026;-71
2022/02/19 00:24:03;;;;;;;8.48;1.50;;;7.40;97.90;;;;;;5003728;28;20346;-70
2022/02/19 00:26:29;;;;;;;7.82;1.63;;;7.40;98.00;;;;;;5000891;28;20037;-71
2022/02/19 00:28:54;;;;;;;4.80;1.38;;;7.40;98.00;;;;;;5004061;28;20044;-71
2022/02/19 00:31:20;;;;;;;9.18;1.25;;;7.40;97.80;;;;;;5004051;28;20057;-71
2022/02/19 00:33:46;;;;;;;9.45;1.45;;;7.40;97.80;;;;;;5006989;28;20087;-69
2022/02/19 00:36:12;;;;;;;6.78;1.30;;;7.40;97.70;;;;;;5010259;28;20113;-70
2022/02/19 00:38:37;;;;;;;7.70;1.60;;;7.40;97.80;;;;;;5006118;28;20022;-71
2022/02/19 00:41:03;;;;;;;9.95;1.70;;;7.40;97.60;;;;;;5009935;28;20097;-70
2022/02/19 00:43:29;;;;;;;8.80;1.75;;;7.40;97.60;;;;;;5008329;28;20144;-70
2022/02/19 00:45:56;;;;;;;5.32;1.35;;;7.40;97.50;;;;;;5007293;28;20025;-70
2022/02/19 00:48:22;;;;;;;5.97;1.80;;;7.40;97.60;;;;;;5004995;28;20029;-71
2022/02/19 00:50:49;;;;;;;12.50;2.28;;;7.30;97.40;;;;;;5009188;28;20474;-71
2022/02/19 00:53:15;;;;;;;7.57;1.50;;;7.30;97.20;;;;;;5009149;28;20172;-70
2022/02/19 00:55:41;;;;;;;5.97;1.35;;;7.30;97.10;;;;;;5008933;28;20701;-72
2022/02/19 00:58:06;;;;;;;9.18;1.63;;;7.30;96.80;;;;;;5002937;28;20034;-71
2022/02/19 01:00:32;;;;;;;6.72;1.38;;;7.30;96.80;;;;;;5008367;28;20038;-70
2022/02/19 01:02:58;;;;;;;12.27;2.03;;;7.30;96.70;;;;;;4999673;28;20408;-70
2022/02/19 01:05:24;;;;;;;9.50;1.95;;;7.30;96.50;;;;;;5007296;28;20040;-71
2022/02/19 01:07:49;;;;;;;9.38;1.98;;;7.20;96.40;;;;;;5007091;28;20028;-70
2022/02/19 01:10:15;;;;;;;6.78;1.33;;;7.20;96.30;;;;;;5010336;28;20592;-70
2022/02/19 01:12:41;;;;;;;12.85;1.63;;;7.20;96.30;;;;;;5009661;28;20121;-71
2022/02/19 01:15:07;;;;;;;8.80;1.83;;;7.20;96.30;;;;;;5007098;28;20030;-71
2022/02/19 01:17:33;;;;;;;8.23;1.27;;;7.20;96.30;;;;;;5005325;28;20022;-71
2022/02/19 01:19:59;;;;;;;5.82;1.35;;;7.10;96.20;;;;;;5008845;28;20018;-72
2022/02/19 01:22:25;;;;;;;13.60;2.40;;;7.10;96.20;;;;;;5008786;28;20393;-70
2022/02/19 01:24:51;;;;;;;7.38;1.70;;;7.10;96.10;;;;;;5005029;28;20495;-71
2022/02/19 01:27:16;;;;;;;12.95;1.70;;;7.10;96.10;;;;;;5006717;28;20454;-71
2022/02/19 01:29:42;;;;;;;10.50;1.77;;;7.10;96.00;;;;;;5005264;28;20037;-70
2022/02/19 01:32:08;;;;;;;9.20;1.30;;;7.10;95.90;;;;;;5010011;28;20105;-70
2022/02/19 01:34:33;;;;;;;8.98;1.63;;;7.10;96.00;;;;;;5009701;28;20022;-70
2022/02/19 01:36:59;;;;;;;8.50;1.40;;;7.10;96.10;;;;;;5006085;28;20025;-70
2022/02/19 01:39:24;;;;;;;9.30;1.58;;;7.10;96.20;;;;;;5007505;28;20029;-70
2022/02/19 01:41:50;;;;;;;7.53;1.30;;;7.10;96.20;;;;;;5008292;28;20038;-70
2022/02/19 01:44:16;;;;;;;7.70;1.80;;;7.00;96.20;;;;;;5009871;28;20030;-70
2022/02/19 01:46:42;;;;;;;7.25;1.42;;;7.00;96.20;;;;;;5007290;28;20040;-71
2022/02/19 01:49:08;;;;;;;7.25;1.77;;;7.00;96.10;;;;;;5007185;28;20038;-70
2022/02/19 01:51:35;;;;;;;5.85;1.63;;;7.00;96.10;;;;;;5007117;28;20557;-70
2022/02/19 01:54:03;;;;;;;8.18;1.38;;;7.00;96.20;;;;;;5008323;28;20166;-71
2022/02/19 01:56:29;;;;;;;10.18;1.95;;;7.00;96.30;;;;;;5007330;28;20034;-71
2022/02/19 01:58:55;;;;;;;6.68;1.60;;;7.00;96.10;;;;;;5007447;28;20445;-71
2022/02/19 02:01:21;;;;;;;8.63;1.73;;;7.00;96.10;;;;;;5008295;28;20037;-70
2022/02/19 02:03:46;;;;;;;9.70;1.70;;;7.00;96.00;;;;;;5001836;28;20498;-70
2022/02/19 02:06:13;;;;;;;8.35;1.55;;;7.00;95.90;;;;;;5002063;28;20115;-71
2022/02/19 02:08:40;;;;;;;8.93;1.33;;;6.90;95.90;;;;;;5006141;28;20168;-70
2022/02/19 02:11:06;;;;;;;6.15;1.20;;;6.90;95.80;;;;;;5007913;28;20546;-71
2022/02/19 02:13:31;;;;;;;9.43;1.65;;;6.90;95.80;;;;;;5006538;28;20040;-70
2022/02/19 02:15:57;;;;;;;9.25;1.48;;;6.90;95.80;;;;;;5006783;28;20029;-70
2022/02/19 02:18:23;;;;;;;8.05;1.67;;;6.90;95.80;;;;;;5008132;28;20022;-70
2022/02/19 02:20:49;;;;;;;3.88;1.17;;;6.90;95.70;;;;;;5007240;28;20025;-70
2022/02/19 02:23:16;;;;;;;6.65;1.50;;;6.90;95.60;;;;;;5008130;28;20082;-72
2022/02/19 02:25:43;;;;;;;9.07;1.60;;;6.90;95.60;;;;;;5006884;28;20080;-70
2022/02/19 02:28:09;;;;;;;13.90;1.55;;;6.80;95.30;;;;;;5006387;28;20470;-71
2022/02/19 02:30:36;;;;;;;5.35;1.20;;;6.80;95.40;;;;;;5005241;28;20034;-71
2022/02/19 02:33:06;;;;;;;11.38;1.50;;;6.70;95.30;;;;;;5008006;28;20471;-71
2022/02/19 02:35:32;;;;;;;7.38;1.60;;;6.70;95.10;;;;;;5006655;28;20030;-72
2022/02/19 02:37:58;;;;;;;8.23;1.35;;;6.70;94.80;;;;;;5002184;28;20040;-70
2022/02/19 02:40:23;;;;;;;10.40;1.50;;;6.70;94.70;;;;;;5007591;28;20084;-71
2022/02/19 02:42:49;;;;;;;5.25;1.35;;;6.60;94.50;;;;;;5007213;28;20044;-71
2022/02/19 02:45:14;;;;;;;6.85;1.30;;;6.60;94.50;;;;;;5007662;28;20026;-71
2022/02/19 02:47:43;;;;;;;8.00;1.20;;;6.60;94.60;;;;;;5001465;28;20467;-71
2022/02/19 02:50:10;;;;;;;6.10;1.35;;;6.50;94.50;;;;;;5005909;28;20030;-71
2022/02/19 02:52:36;;;;;;;8.10;1.55;;;6.50;94.50;;;;;;5004540;28;20022;-71
2022/02/19 02:55:04;;;;;;;9.15;2.10;;;6.50;94.50;;;;;;5007305;28;20072;-71
2022/02/19 02:57:30;;;;;;;8.13;1.77;;;6.50;94.40;;;;;;5005016;28;20114;-71
2022/02/19 02:59:55;;;;;;;12.70;1.70;;;6.40;94.40;;;;;;5007658;28;20456;-70
2022/02/19 03:02:21;;;;;;;9.80;1.38;;;6.40;94.50;;;;;;5005242;28;20026;-70
2022/02/19 03:04:46;;;;;;;9.27;1.77;;;6.40;94.50;;;;;;5008108;28;20096;-71
2022/02/19 03:07:12;;;;;;;9.65;1.80;;;6.40;94.50;;;;;;4999334;28;20026;-70
2022/02/19 03:09:38;;;;;;;6.20;1.30;;;6.30;94.30;;;;;;5005194;28;20033;-71
2022/02/19 03:12:04;;;;;;;13.50;1.60;;;6.30;94.10;;;;;;5009098;28;20089;-72
2022/02/19 03:14:29;;;;;;;8.10;1.60;;;6.30;94.20;;;;;;5007275;28;20037;-71
2022/02/19 03:16:55;;;;;;;8.88;1.52;;;6.20;94.30;;;;;;5006917;28;20030;-70
2022/02/19 03:19:21;;;;;;;5.95;1.17;;;6.20;94.40;;;;;;5004661;28;20038;-71
2022/02/19 03:21:46;;;;;;;9.88;1.67;;;6.20;94.40;;;;;;5008602;28;20029;-71
2022/02/19 03:24:12;;;;;;;13.57;2.03;;;6.20;94.50;;;;;;5001517;28;20027;-71
2022/02/19 03:26:37;;;;;;;8.35;1.35;;;6.20;94.50;;;;;;5001503;28;20398;-70
2022/02/19 03:29:03;;;;;;;8.13;1.63;;;6.20;94.50;;;;;;5003845;28;20988;-69
2022/02/19 03:31:29;;;;;;;7.85;2.22;;;6.20;94.50;;;;;;5007822;28;20419;-71
2022/02/19 03:33:54;;;;;;;8.48;1.70;;;6.10;94.50;;;;;;5004740;28;20060;-71
2022/02/19 03:36:20;;;;;;;11.27;2.17;;;6.10;94.40;;;;;;5005594;28;20037;-71
2022/02/19 03:38:45;;;;;;;10.15;1.75;;;6.10;94.40;;;;;;5005205;28;20433;-70
2022/02/19 03:41:11;;;;;;;4.90;1.50;;;6.10;94.40;;;;;;5007182;28;20022;-70
2022/02/19 03:43:37;;;;;;;6.93;1.42;;;6.00;94.40;;;;;;5007009;28;20705;-70
2022/02/19 03:46:02;;;;;;;10.82;1.75;;;6.00;94.40;;;;;;5003054;28;20065;-70
2022/02/19 03:48:28;;;;;;;7.95;1.52;;;6.00;94.40;;;;;;5002443;28;20029;-70
2022/02/19 03:50:53;;;;;;;8.50;1.42;;;6.00;94.40;;;;;;5007015;28;20103;-69
2022/02/19 03:53:19;;;;;;;10.75;2.08;;;5.90;94.60;;;;;;5008217;28;20108;-70
2022/02/19 03:55:44;;;;;;;10.57;1.60;;;5.90;94.50;;;;;;5006145;28;20100;-70
2022/02/19 03:58:10;;;;;;;6.63;1.50;;;6.00;94.50;;;;;;5005461;28;20026;-71
2022/02/19 04:00:35;;;;;;;8.70;1.90;;;5.90;94.40;;;;;;5003596;28;20041;-71
2022/02/19 04:03:01;;;;;;;7.15;1.63;;;5.90;94.50;;;;;;5007244;28;20057;-70
2022/02/19 04:05:27;;;;;;;9.98;1.70;;;5.90;94.50;;;;;;5008293;28;20034;-71
2022/02/19 04:07:52;;;;;;;6.47;1.73;;;5.90;94.50;;;;;;5010026;28;20438;-70
2022/02/19 04:10:18;;;;;;;8.10;1.48;;;5.90;94.40;;;;;;5011992;28;20374;-70
2022/02/19 04:12:43;;;;;;;7.35;1.35;;;5.90;94.70;;;;;;5008329;28;20621;-70
2022/02/19 04:15:09;;;;;;;5.82;1.83;;;5.90;94.40;;;;;;5005355;28;20018;-70
2022/02/19 04:17:35;;;;;;;11.07;1.38;;;5.80;94.40;;;;;;5005930;28;20026;-70
2022/02/19 04:20:01;;;;;;;9.43;1.83;;;5.80;94.50;;;;;;5006508;28;20019;-70
2022/02/19 04:22:26;;;;;;;10.07;1.65;;;5.80;94.60;;;;;;5007517;28;20071;-69
2022/02/19 04:24:52;;;;;;;6.28;1.33;;;5.80;94.60;;;;;;5008994;28;20449;-71
2022/02/19 04:27:19;;;;;;;11.05;1.85;;;5.70;94.70;;;;;;5005144;28;20581;-70
2022/02/19 04:29:45;;;;;;;11.90;1.70;;;5.70;94.60;;;;;;5005417;28;20447;-70
2022/02/19 04:32:11;;;;;;;6.05;1.10;;;5.70;94.60;;;;;;5008355;28;20026;-70
2022/02/19 04:34:37;;;;;;;11.00;1.83;;;5.60;94.80;;;;;;5002565;28;20078;-70
2022/02/19 04:37:03;;;;;;;11.90;1.63;;;5.60;94.70;;;;;;5009186;28;20029;-70
2022/02/19 04:39:29;;;;;;;7.13;1.48;;;5.60;94.80;;;;;;5012413;28;20029;-70
2022/02/19 04:41:54;;;;;;;11.80;1.60;;;5.60;94.70;;;;;;5009855;28;20100;-71
2022/02/19 04:44:20;;;;;;;8.30;1.83;;;5.60;94.70;;;;;;5012362;28;20029;-71
2022/02/19 04:46:46;;;;;;;12.45;2.13;;;5.60;94.90;;;;;;5010620;28;20038;-70
2022/02/19 04:49:11;;;;;;;7.40;1.90;;;5.50;94.90;;;;;;5007740;28;20030;-70
2022/02/19 04:51:38;;;;;;;9.32;1.60;;;5.50;95.20;;;;;;5009900;28;20041;-71
2022/02/19 04:54:04;;;;;;;10.52;1.85;;;5.50;94.90;;;;;;5007876;28;20030;-70
2022/02/19 04:56:31;;;;;;;6.55;1.60;;;5.50;94.90;;;;;;5007706;28;20041;-71
2022/02/19 04:58:56;;;;;;;12.30;1.70;;;5.50;95.00;;;;;;5006137;28;20394;-70
2022/02/19 05:01:22;;;;;;;9.10;1.50;;;5.50;94.80;;;;;;5009461;28;20032;-71
2022/02/19 05:03:48;;;;;;;4.43;1.52;;;5.40;94.90;;;;;;5008117;28;20037;-69
2022/02/19 05:06:13;;;;;;;12.43;1.70;;;5.40;95.00;;;;;;5009408;28;20026;-71
2022/02/19 05:08:40;;;;;;;6.45;1.50;;;5.40;94.90;;;;;;5007516;28;20034;-71
2022/02/19 05:11:08;;;;;;;6.28;1.20;;;5.40;94.90;;;;;;5009833;28;20439;-70
2022/02/19 05:13:34;;;;;;;10.13;1.70;;;5.40;95.00;;;;;;5003039;28;20069;-71
2022/02/19 05:15:59;;;;;;;11.68;1.40;;;5.40;95.10;;;;;;5002753;28;20050;-71
2022/02/19 05:18:25;;;;;;;17.77;1.77;;;5.40;95.10;;;;;;5002824;28;20156;-71
2022/02/19 05:20:52;;;;;;;4.25;1.38;;;5.40;95.00;;;;;;5004317;28;20046;-70
2022/02/19 05:23:20;;;;;;;9.48;1.30;;;5.30;95.00;;;;;;5006978;28;20029;-71
2022/02/19 05:25:46;;;;;;;9.98;1.45;;;5.30;95.10;;;;;;5008443;22;21022;-69
2022/02/19 05:28:12;;;;;;;10.77;1.63;;;5.20;95.10;;;;;;4994875;28;20125;-70
2022/02/19 05:30:37;;;;;;;8.88;1.73;;;5.20;95.20;;;;;;4990163;28;20030;-69
2022/02/19 05:33:04;;;;;;;6.65;1.55;;;5.20;95.30;;;;;;4989291;28;20026;-69
2022/02/19 05:35:29;;;;;;;9.02;1.67;;;5.20;95.20;;;;;;4989570;28;20034;-69
2022/02/19 05:37:55;;;;;;;5.78;1.02;;;5.10;95.20;;;;;;4989478;28;20034;-69
2022/02/19 05:40:21;;;;;;;14.73;1.83;;;5.10;95.30;;;;;;4991516;28;20097;-70
2022/02/19 05:42:46;;;;;;;6.10;1.50;;;5.10;95.30;;;;;;4986177;28;20062;-69
2022/02/19 05:45:12;;;;;;;8.75;1.60;;;5.10;95.30;;;;;;4983063;28;20034;-69
2022/02/19 05:47:38;;;;;;;7.03;1.45;;;5.10;95.40;;;;;;4982863;28;20038;-69
2022/02/19 05:50:04;;;;;;;7.95;1.45;;;5.00;95.40;;;;;;4982818;28;20034;-69
2022/02/19 05:52:30;;;;;;;8.40;1.60;;;5.00;95.40;;;;;;4986621;28;20033;-69
2022/02/19 05:54:55;;;;;;;5.55;1.58;;;5.00;95.40;;;;;;4989557;28;20026;-69
2022/02/19 05:57:22;;;;;;;6.20;1.50;;;5.00;95.40;;;;;;4987723;28;20403;-69
2022/02/19 05:59:49;;;;;;;9.05;1.90;;;5.00;95.50;;;;;;4990550;28;20157;-69
2022/02/19 06:02:14;;;;;;;9.93;1.52;;;4.90;95.60;;;;;;4990711;28;20398;-69
2022/02/19 06:04:40;;;;;;;7.63;1.70;;;5.00;95.70;;;;;;4990063;28;20038;-69
2022/02/19 06:07:06;;;;;;;7.65;1.90;;;4.90;95.70;;;;;;4988868;28;20027;-69
2022/02/19 06:09:31;;;;;;;10.60;1.55;;;4.90;95.80;;;;;;4989908;28;20037;-69
2022/02/19 06:11:57;;;;;;;10.25;1.75;;;4.90;95.80;;;;;;4986733;28;20113;-69
2022/02/19 06:14:23;;;;;;;6.85;1.90;;;4.90;95.90;;;;;;4989770;28;20018;-69
2022/02/19 06:16:49;;;;;;;11.75;1.83;;;4.90;95.90;;;;;;4987947;28;20104;-69
2022/02/19 06:19:16;;;;;;;9.75;1.50;;;4.80;95.80;;;;;;4988905;28;20652;-69
2022/02/19 06:21:42;;;;;;;15.52;1.75;;;4.80;95.90;;;;;;4990512;28;20125;-69
2022/02/19 06:24:07;;;;;;;12.98;2.13;;;4.80;96.00;;;;;;4987797;28;20101;-69
2022/02/19 06:26:33;;;;;;;10.68;1.80;;;4.80;95.90;;;;;;4984378;28;20122;-69
2022/02/19 06:28:58;;;;;;;9.63;1.70;;;4.70;96.00;;;;;;4988531;28;20042;-69
2022/02/19 06:31:24;;;;;;;9.15;1.88;;;4.70;96.10;;;;;;4989047;28;20510;-69
2022/02/19 06:33:51;;;;;;;9.23;2.05;;;4.70;96.20;;;;;;4985463;28;20023;-69
2022/02/19 06:36:18;;;;;;;9.23;2.00;;;4.70;96.20;;;;;;4986358;28;20042;-69
2022/02/19 06:38:43;;;;;;;12.95;1.70;;;4.70;96.30;;;;;;4986702;28;20029;-69
2022/02/19 06:41:10;;;;;;;6.50;1.45;;;4.70;96.30;;;;;;4989619;28;20030;-69
2022/02/19 06:43:36;;;;;;;4.75;1.23;;;4.70;96.30;;;;;;4988444;28;20088;-69
2022/02/19 06:46:02;;;;;;;7.75;2.00;;;4.70;96.30;;;;;;4987707;28;20088;-69
2022/02/19 06:48:28;;;;;;;7.63;1.60;;;4.60;96.40;;;;;;4988464;28;20629;-69
2022/02/19 06:50:56;;;;;;;9.75;1.55;;;4.60;96.40;;;;;;4984229;28;20030;-69
2022/02/19 06:53:22;;;;;;;8.07;1.80;;;4.60;96.50;;;;;;4984953;28;20297;-69
2022/02/19 06:55:47;;;;;;;9.75;1.83;;;4.60;96.50;;;;;;4988593;28;20032;-68
2022/02/19 06:58:13;;;;;;;8.77;1.98;;;4.60;96.60;;;;;;4992971;28;20452;-68
2022/02/19 07:00:38;;;;;;;9.27;1.90;;;4.60;96.70;;;;;;4987696;28;20038;-70
2022/02/19 07:03:04;;;;;;;12.35;1.88;;;4.60;96.70;;;;;;4989291;28;20030;-69
2022/02/19 07:05:30;;;;;;;10.40;1.60;;;4.60;96.70;;;;;;4989687;28;20050;-70
2022/02/19 07:07:55;;;;;;;8.80;1.63;;;4.60;96.70;;;;;;4986517;28;20109;-69
2022/02/19 07:10:21;;;;;;;8.27;1.75;;;4.60;96.70;;;;;;4991284;28;20049;-69
2022/02/19 07:12:46;;;;;;;8.20;1.42;;;4.60;96.80;;;;;;4987121;28;20054;-69
2022/02/19 07:15:12;;;;;;;8.55;1.35;;;4.60;96.80;;;;;;4987585;28;20031;-69
2022/02/19 07:17:56;;;;;;;10.15;1.90;;;4.60;96.90;;;;;;4988157;28;20026;-69
2022/02/19 07:20:23;;;;;;;11.85;1.55;;;4.60;96.70;;;;;;4989263;28;20030;-70
2022/02/19 07:22:49;;;;;;;8.27;1.30;;;4.60;96.70;;;;;;4989569;28;20026;-69
2022/02/19 07:25:15;;;;;;;7.68;1.65;;;4.70;96.70;;;;;;4989102;28;20022;-69
2022/02/19 07:27:43;;;;;;;7.15;1.73;;;5.20;96.30;;;;;;4989589;28;20490;-69
2022/02/19 07:30:14;;;;;;;3.05;1.15;;;5.40;96.00;;;;;;4986840;28;20605;-69
2022/02/19 07:32:40;;;;;;;11.90;1.60;;;5.40;95.80;;;;;;4987291;28;20420;-70
2022/02/19 07:35:07;;;;;;;5.57;1.50;;;5.40;95.90;;;;;;4989444;28;20080;-69
2022/02/19 07:37:34;;;;;;;7.43;1.35;;;5.30;95.60;;;;;;4986477;28;20029;-69
2022/02/19 07:39:59;;;;;;;7.20;1.65;;;5.40;95.80;;;;;;4987380;28;20519;-69
2022/02/19 07:42:25;;;;;;;9.00;1.88;;;5.30;95.90;;;;;;4985973;28;20105;-68
2022/02/19 07:44:52;;;;;;;11.05;1.92;;;5.40;95.80;;;;;;4987121;28;20030;-69
2022/02/19 07:47:26;;;;;;;10.35;2.50;;;5.80;95.60;;;;;;4988696;28;20331;-70
2022/02/19 07:58:23;;;;;;;9.88;1.95;;;5.40;95.50;;;;;;4988892;28;20201;-70
2022/02/19 08:00:58;;;;;;;11.93;1.67;;;5.40;95.40;;;;;;4990136;28;20023;-69
2022/02/19 08:03:27;;;;;;;13.43;2.38;;;5.20;95.60;;;;;;4991164;28;20030;-70
2022/02/19 08:05:53;;;;;;;7.03;1.63;;;5.10;95.90;;;;;;4990468;28;20054;-69
2022/02/19 08:08:19;;;;;;;7.95;1.73;;;5.10;96.00;;;;;;4989101;28;20546;-69
2022/02/19 08:10:46;;;;;;;7.68;1.50;;;5.00;96.10;;;;;;4990592;28;20545;-70
2022/02/19 08:13:13;;;;;;;6.93;1.83;;;5.00;96.10;;;;;;4988557;28;20027;-70
2022/02/19 08:15:40;;;;;;;9.52;1.92;;;5.10;96.10;;;;;;4988837;28;20380;-69
2022/02/19 08:18:08;;;;;;;8.48;1.95;;;5.00;96.30;;;;;;4988642;28;20022;-69
2022/02/19 08:20:38;;;;;;;7.10;1.45;;;5.00;96.20;;;;;;4990678;28;20438;-68
2022/02/19 08:23:06;;;;;;;7.90;1.90;;;5.00;96.30;;;;;;4989138;28;20033;-71
2022/02/19 08:25:32;;;;;;;5.30;1.60;;;5.20;96.60;;;;;;4988861;28;20030;-70
2022/02/19 08:27:58;;;;;;;6.63;1.52;;;5.50;97.10;;;;;;4988531;28;20030;-69
2022/02/19 08:30:24;;;;;;;6.15;1.20;;;5.70;97.40;;;;;;4989460;28;20061;-70
2022/02/19 08:32:50;;;;;;;4.43;1.10;;;6.00;97.20;;;;;;4989916;28;20046;-70
2022/02/19 08:35:16;;;;;;;10.15;1.70;;;6.30;97.70;;;;;;4992761;28;20026;-69
2022/02/19 08:37:42;;;;;;;8.35;1.30;;;6.40;97.10;;;;;;4991814;28;20035;-70
2022/02/19 08:40:10;;;;;;;5.82;1.30;;;6.40;96.80;;;;;;4989360;28;20018;-70
2022/02/19 08:42:37;;;;;;;6.82;1.25;;;6.40;96.40;;;;;;4988555;28;20479;-69
2022/02/19 08:45:04;;;;;;;8.55;1.48;;;6.50;96.30;;;;;;4989745;28;20030;-70
2022/02/19 08:47:30;;;;;;;8.75;2.53;;;6.60;96.20;;;;;;4988036;28;20018;-70
2022/02/19 08:49:55;;;;;;;5.78;1.20;;;6.60;96.10;;;;;;4989861;28;20033;-68
2022/02/19 08:52:21;;;;;;;11.27;2.03;;;6.70;95.70;;;;;;4992678;28;20442;-69
2022/02/19 08:54:47;;;;;;;9.63;1.83;;;6.70;95.50;;;;;;4989100;28;20027;-69
2022/02/19 08:57:12;;;;;;;6.60;1.48;;;6.80;95.40;;;;;;4990684;28;20045;-70
2022/02/19 08:59:38;;;;;;;5.47;1.42;;;6.80;95.30;;;;;;4989370;28;20026;-69
2022/02/19 09:02:04;;;;;;;8.15;1.45;;;6.90;95.40;;;;;;4992789;28;20026;-69
2022/02/19 09:04:29;;;;;;;9.55;1.40;;;6.80;94.90;;;;;;4993556;28;20037;-69
2022/02/19 09:06:55;;;;;;;4.53;1.33;;;6.90;94.80;;;;;;4992644;28;20395;-70
2022/02/19 09:09:20;;;;;;;7.78;1.30;;;6.70;94.80;;;;;;4992475;28;20542;-69
2022/02/19 09:11:46;;;;;;;5.95;1.65;;;6.70;94.70;;;;;;4993154;28;20038;-68
2022/02/19 09:14:12;;;;;;;8.18;1.55;;;6.70;94.00;;;;;;4993106;28;20030;-69
2022/02/19 09:16:37;;;;;;;6.63;1.63;;;6.50;93.70;;;;;;4990596;28;20073;-69
2022/02/19 09:19:05;;;;;;;6.88;1.48;;;6.50;93.80;;;;;;4987217;28;20040;-69
2022/02/19 09:21:31;;;;;;;6.25;1.23;;;6.50;93.90;;;;;;4993369;28;20491;-66
2022/02/19 09:23:57;;;;;;;8.35;1.48;;;6.50;94.10;;;;;;4991649;28;20062;-67
2022/02/19 09:26:23;;;;;;;7.70;1.23;;;6.70;94.20;;;;;;4992360;28;20072;-66
2022/02/19 09:28:50;;;;;;;7.03;1.50;;;6.70;94.10;;;;;;4998280;28;20482;-69
2022/02/19 09:31:16;;;;;;;6.90;1.45;;;6.80;94.00;;;;;;4992282;28;20105;-68
2022/02/19 09:33:42;;;;;;;8.80;1.30;;;6.80;93.90;;;;;;4992870;28;20030;-68
2022/02/19 09:36:08;;;;;;;11.48;1.95;;;6.80;93.60;;;;;;4992306;28;20026;-67
2022/02/19 09:38:34;;;;;;;7.63;1.75;;;6.90;93.70;;;;;;4990870;28;20406;-67
2022/02/19 09:41:01;;;;;;;6.95;1.30;;;6.90;93.90;;;;;;4988265;28;20030;-66
2022/02/19 09:43:27;;;;;;;7.82;1.30;;;7.00;93.70;;;;;;4990617;28;20149;-68
2022/02/19 09:45:53;;;;;;;7.00;1.20;;;7.00;93.50;;;;;;4992325;28;20112;-68
2022/02/19 09:48:20;;;;;;;4.65;1.13;;;7.10;93.70;;;;;;4991045;28;20038;-70
2022/02/19 09:50:48;;;;;;;4.97;1.40;;;7.10;93.10;;;;;;4991180;28;20034;-67
2022/02/19 09:53:14;;;;;;;9.10;1.60;;;7.10;93.10;;;;;;4992221;28;20030;-67
2022/02/19 09:55:39;;;;;;;6.05;1.45;;;7.00;93.00;;;;;;4991761;28;20022;-67
2022/02/19 09:58:05;;;;;;;4.32;0.98;;;7.00;92.90;;;;;;4990470;28;20031;-67
2022/02/19 10:00:40;;;;;;;5.43;1.13;;;7.10;93.20;;;;;;4986533;28;20154;-67
2022/02/19 10:03:20;;;;;;;9.13;1.40;;;7.20;92.80;;;;;;4989881;28;20104;-67
2022/02/19 10:05:46;;;;;;;4.88;1.15;;;7.30;92.30;;;;;;4990618;28;20034;-68
2022/02/19 10:08:11;;;;;;;4.72;1.10;;;7.30;92.10;;;;;;4990171;28;20068;-68
2022/02/19 10:10:39;;;;;;;5.43;1.63;;;7.30;92.00;;;;;;4991390;28;20029;-69
2022/02/19 10:13:05;;;;;;;6.97;1.45;;;7.30;92.00;;;;;;4987093;28;20030;-69
2022/02/19 10:15:51;;;;;;;7.13;1.63;;;7.30;92.00;;;;;;4990111;28;20058;-69
2022/02/19 10:18:31;;;;;;;6.97;1.35;;;7.30;91.70;;;;;;4982202;28;20022;-68
2022/02/19 10:21:12;;;;;;;5.15;1.23;;;7.30;91.60;;;;;;4989253;28;20037;-68
2022/02/19 10:23:39;;;;;;;3.88;1.30;;;7.20;91.90;;;;;;4990924;28;20113;-68
2022/02/19 10:26:06;;;;;;;5.68;1.45;;;7.30;91.90;;;;;;4991083;28;20084;-68
2022/02/19 10:28:31;;;;;;;7.32;1.23;;;7.20;91.40;;;;;;4986936;28;20034;-68
2022/02/19 10:31:13;;;;;;;3.55;1.17;;;7.20;91.30;;;;;;4998301;28;20095;-68
2022/02/19 10:33:39;;;;;;;6.95;1.27;;;7.10;90.70;;;;;;4993039;28;20323;-68
2022/02/19 10:36:20;;;;;;;6.15;1.60;;;7.00;90.90;;;;;;4987411;28;20033;-68
2022/02/19 10:38:53;;;;;;;9.50;1.77;;;6.90;90.60;;;;;;4990317;28;20096;-67
2022/02/19 10:41:19;;;;;;;3.88;1.05;;;6.90;90.70;;;;;;4993792;28;20691;-67
2022/02/19 10:43:45;;;;;;;5.53;1.10;;;6.90;90.90;;;;;;4989655;28;20034;-66
2022/02/19 10:46:11;;;;;;;4.78;1.20;;;6.90;91.00;;;;;;4989934;28;20451;-68
2022/02/19 10:48:38;;;;;;;5.97;1.33;;;7.00;90.80;;;;;;4988858;28;20026;-68
2022/02/19 10:51:11;;;;;;;6.53;1.40;;;7.00;90.40;;;;;;4991592;28;20030;-67
2022/02/19 10:53:38;;;;;;;4.75;1.05;;;7.00;90.30;;;;;;4991244;28;20121;-68
2022/02/19 10:56:15;;;;;;;5.35;1.23;;;7.00;90.60;;;;;;4991681;28;20010;-68
2022/02/19 10:59:00;;;;;;;6.97;1.58;;;7.00;90.40;;;;;;4990514;28;20084;-70
2022/02/19 11:01:26;;;;;;;4.35;1.20;;;6.90;90.30;;;;;;4991438;28;20105;-69
2022/02/19 11:03:53;;;;;;;4.22;1.13;;;6.90;90.40;;;;;;4991183;28;20046;-68
2022/02/19 11:06:18;;;;;;;5.80;1.42;;;6.90;90.60;;;;;;4991437;28;20395;-69
2022/02/19 11:08:45;;;;;;;6.45;1.25;;;6.90;90.50;;;;;;4989608;28;20034;-67
2022/02/19 11:11:11;;;;;;;6.88;1.52;;;6.90;90.30;;;;;;4991217;28;20073;-69
2022/02/19 11:13:38;;;;;;;6.53;1.25;;;6.90;90.40;;;;;;4990161;28;20088;-70
2022/02/19 11:16:04;;;;;;;5.68;1.08;;;6.90;90.20;;;;;;4991566;28;20029;-69
2022/02/19 11:18:35;;;;;;;4.55;1.20;;;6.90;90.20;;;;;;4990397;28;20515;-69
2022/02/19 11:21:03;;;;;;;3.30;1.00;;;7.00;90.30;;;;;;4991170;28;20026;-68
2022/02/19 11:23:33;;;;;;;4.32;1.02;;;7.10;90.10;;;;;;4994179;28;20030;-68
2022/02/19 11:26:00;;;;;;;4.57;1.00;;;7.10;88.90;;;;;;5019504;23;20457;-72
2022/02/19 11:28:33;;;;;;;3.90;1.25;;;7.10;88.20;;;;;;5000337;28;20743;-72
2022/02/19 11:31:00;;;;;;;8.85;1.17;;;7.10;87.60;;;;;;5002168;28;20096;-72
2022/02/19 11:33:30;;;;;;;6.40;2.20;;;7.10;87.80;;;;;;5006788;28;20049;-73
2022/02/19 11:36:00;;;;;;;4.03;1.40;;;7.20;87.80;;;;;;5003498;28;20026;-72
2022/02/19 11:38:30;;;;;;;6.25;1.15;;;7.20;87.50;;;;;;5001581;28;20073;-71
2022/02/19 11:40:58;;;;;;;4.10;1.20;;;7.30;87.30;;;;;;5013850;28;20030;-74
2022/02/19 11:43:43;;;;;;;4.25;0.98;;;7.40;86.80;;;;;;5001372;28;20060;-71
2022/02/19 11:46:15;;;;;;;6.07;1.10;;;7.50;85.20;;;;;;5024298;28;20445;-75
2022/02/19 11:48:46;;;;;;;6.05;1.42;;;7.60;85.70;;;;;;5008022;28;20036;-73
2022/02/19 11:51:11;;;;;;;4.43;1.50;;;7.80;85.80;;;;;;4999427;28;20042;-75
2022/02/19 11:53:37;;;;;;;8.90;1.33;;;7.90;85.10;;;;;;5000217;28;20552;-75
2022/02/19 11:56:10;;;;;;;5.13;1.13;;;8.00;84.90;;;;;;5003229;28;20026;-74
2022/02/19 11:58:58;;;;;;;6.05;1.23;;;8.20;84.70;;;;;;5000356;28;20397;-76
2022/02/19 12:01:23;;;;;;;4.65;1.20;;;8.50;84.40;;;;;;5000438;28;20029;-74
2022/02/19 12:04:09;;;;;;;2.85;0.80;;;8.70;84.20;;;;;;5002380;28;20026;-76
2022/02/19 12:06:34;;;;;;;3.50;0.90;;;8.80;82.10;;;;;;5003606;28;20042;-76
2022/02/19 12:09:05;;;;;;;4.95;0.80;;;9.00;82.50;;;;;;4997010;28;20030;-77
2022/02/19 12:11:31;;;;;;;5.03;0.90;;;9.20;81.90;;;;;;4989079;28;20035;-73
2022/02/19 12:13:59;;;;;;;3.55;1.10;;;9.40;81.10;;;;;;4992706;28;20644;-72
2022/02/19 12:16:31;;;;;;;3.70;1.05;;;9.60;80.70;;;;;;4999085;28;20053;-73
2022/02/19 12:18:58;;;;;;;3.67;0.77;;;9.90;79.70;;;;;;5004562;28;20023;-73
2022/02/19 12:21:34;;;;;;;5.25;0.95;;;10.00;80.10;;;;;;5007971;28;20430;-73
2022/02/19 12:24:13;;;;;;;4.60;1.35;;;10.10;78.40;;;;;;5004823;28;20517;-72
2022/02/19 12:29:23;;;;;;;3.00;1.25;;;10.00;76.30;;;;;;5005506;28;20490;-74
2022/02/19 12:32:09;;;;;;;4.13;0.88;;;10.00;75.90;;;;;;5001873;28;20129;-71
2022/02/19 12:34:36;;;;;;;5.22;1.40;;;10.10;74.60;;;;;;5009638;28;20022;-74
2022/02/19 12:37:05;;;;;;;3.35;0.80;;;10.10;74.70;;;;;;5006523;28;20053;-70
2022/02/19 12:39:33;;;;;;;5.07;0.98;;;10.20;74.70;;;;;;5014378;28;20033;-74
2022/02/19 12:41:59;;;;;;;3.13;0.90;;;10.20;73.50;;;;;;5013880;28;20430;-74
2022/02/19 12:44:27;;;;;;;5.80;1.08;;;10.40;72.90;;;;;;5006261;28;20022;-73
2022/02/19 12:46:53;;;;;;;7.20;1.20;;;10.40;72.00;;;;;;5008836;28;20029;-72
2022/02/19 12:49:20;;;;;;;8.68;1.15;;;10.40;71.80;;;;;;5009920;28;20379;-73
2022/02/19 12:52:00;;;;;;;3.70;1.30;;;10.40;71.00;;;;;;5011110;28;20049;-74
2022/02/19 12:54:42;;;;;;;3.22;1.23;;;10.50;70.90;;;;;;5004431;28;20057;-74
2022/02/19 12:57:10;;;;;;;5.57;1.35;;;10.60;70.90;;;;;;5014434;28;20014;-73
2022/02/19 12:59:37;;;;;;;5.15;1.10;;;10.70;71.40;;;;;;5032922;28;20018;-74
2022/02/19 13:02:05;;;;;;;3.38;1.20;;;10.70;71.40;;;;;;5016002;28;20030;-72
2022/02/19 13:04:33;;;;;;;2.80;1.10;;;10.90;71.20;;;;;;5011153;28;20129;-71
2022/02/19 13:07:00;;;;;;;2.92;0.90;;;11.00;71.10;;;;;;5008001;28;20029;-71